Time;durP1;ratioP1;P1;durP2;ratioP2;P2;SDS_P1;SDS_P2;PMS_P1;PMS_P2;Temp;Humidity;BMP_temperature;BMP_pressure;BME280_temperature;BME280_humidity;BME280_pressure;Samples;Min_cycle;Max_cycle;Signal;HPM_P1;HPM_P2
2022/01/10 00:00:06;;;;;;;36.30;7.85;;;3.70;99.90;;;;;;4852661;29;20038;-63
2022/01/10 00:02:31;;;;;;;32.58;8.35;;;3.70;99.90;;;;;;4852684;29;20088;-63
2022/01/10 00:04:57;;;;;;;24.60;7.13;;;3.80;99.90;;;;;;4849813;29;20041;-63
2022/01/10 00:07:22;;;;;;;28.10;7.13;;;3.70;99.90;;;;;;4846801;29;20057;-63
2022/01/10 00:09:48;;;;;;;21.97;6.40;;;3.70;99.90;;;;;;4850470;29;20129;-62
2022/01/10 00:12:14;;;;;;;24.10;6.57;;;3.70;99.90;;;;;;4853712;29;20054;-63
2022/01/10 00:14:39;;;;;;;36.63;8.63;;;3.70;99.90;;;;;;4853644;29;20111;-63
2022/01/10 00:17:05;;;;;;;31.73;6.67;;;3.70;99.90;;;;;;4835802;29;20058;-62
2022/01/10 00:19:31;;;;;;;27.87;6.50;;;3.60;99.90;;;;;;4839909;29;20046;-63
2022/01/10 00:21:56;;;;;;;24.53;6.87;;;3.60;99.90;;;;;;4833850;29;20050;-63
2022/01/10 00:24:22;;;;;;;29.83;6.70;;;3.60;99.90;;;;;;4838440;29;20400;-63
2022/01/10 00:26:48;;;;;;;26.30;6.32;;;3.50;99.90;;;;;;4852173;29;20058;-62
2022/01/10 00:29:14;;;;;;;27.33;6.80;;;3.50;99.90;;;;;;4850572;29;20422;-63
2022/01/10 00:31:40;;;;;;;25.73;6.00;;;3.50;99.90;;;;;;4851896;29;20109;-62
2022/01/10 00:34:06;;;;;;;28.02;6.28;;;3.50;99.90;;;;;;4853055;29;20062;-63
2022/01/10 00:36:32;;;;;;;28.38;6.55;;;3.40;99.90;;;;;;4851839;29;20061;-63
2022/01/10 00:38:58;;;;;;;33.80;6.93;;;3.40;99.90;;;;;;4839586;29;20125;-63
2022/01/10 00:41:24;;;;;;;20.10;5.22;;;3.40;99.90;;;;;;4846831;29;20053;-63
2022/01/10 00:43:51;;;;;;;26.98;6.45;;;3.40;99.90;;;;;;4851973;29;20085;-63
2022/01/10 00:46:17;;;;;;;28.15;6.28;;;3.40;99.90;;;;;;4852453;29;20054;-63
2022/01/10 00:48:43;;;;;;;29.48;6.53;;;3.40;99.90;;;;;;4851644;29;20050;-63
2022/01/10 00:51:08;;;;;;;27.30;6.25;;;3.40;99.90;;;;;;4848941;29;20077;-63
2022/01/10 00:53:34;;;;;;;30.40;6.70;;;3.30;99.90;;;;;;4852834;29;20048;-63
2022/01/10 00:56:00;;;;;;;29.10;5.67;;;3.30;99.90;;;;;;4838375;29;20043;-63
2022/01/10 00:58:26;;;;;;;29.90;6.17;;;3.30;99.90;;;;;;4852220;29;20342;-63
2022/01/10 01:00:51;;;;;;;24.97;5.33;;;3.20;99.90;;;;;;4849975;29;20311;-63
2022/01/10 01:03:18;;;;;;;30.80;5.95;;;3.20;99.90;;;;;;4850364;29;20046;-62
2022/01/10 01:05:45;;;;;;;25.25;5.65;;;3.20;99.90;;;;;;4824411;29;20062;-63
2022/01/10 01:08:12;;;;;;;34.40;6.32;;;3.20;99.90;;;;;;4842877;29;20398;-63
2022/01/10 01:24:07;;;;;;;27.25;5.93;;;3.00;99.90;;;;;;4840476;29;20135;-63
2022/01/10 01:26:37;;;;;;;26.42;6.05;;;2.90;99.90;;;;;;4841777;29;20049;-63
2022/01/10 01:29:04;;;;;;;28.85;5.68;;;2.90;99.90;;;;;;4850086;29;20482;-62
2022/01/10 01:31:30;;;;;;;24.45;6.03;;;2.80;99.90;;;;;;4852626;29;20046;-63
2022/01/10 01:33:55;;;;;;;26.15;5.85;;;2.80;99.90;;;;;;4844468;29;20065;-63
2022/01/10 01:36:24;;;;;;;22.30;5.80;;;2.80;99.90;;;;;;4834813;29;20049;-63
2022/01/10 01:38:51;;;;;;;21.92;6.15;;;2.70;99.90;;;;;;4851611;29;20049;-63
2022/01/10 01:43:44;;;;;;;26.92;5.82;;;2.70;99.90;;;;;;4851292;29;20061;-63
2022/01/10 01:46:10;;;;;;;24.20;5.95;;;2.70;99.90;;;;;;4835492;29;20052;-63
2022/01/10 01:48:35;;;;;;;25.27;6.18;;;2.70;99.90;;;;;;4836731;29;20077;-63
2022/01/10 01:51:02;;;;;;;35.40;7.07;;;2.60;99.90;;;;;;4852246;29;20050;-63
2022/01/10 01:53:28;;;;;;;20.00;6.25;;;2.60;99.90;;;;;;4850383;29;20046;-63
2022/01/10 01:55:53;;;;;;;27.20;6.50;;;2.60;99.90;;;;;;4842139;29;20061;-63
2022/01/10 01:58:19;;;;;;;23.77;5.95;;;2.60;99.90;;;;;;4823127;29;20062;-63
2022/01/10 02:00:45;;;;;;;24.47;6.73;;;2.60;99.90;;;;;;4852048;29;20223;-63
2022/01/10 02:03:10;;;;;;;27.00;7.53;;;2.60;99.90;;;;;;4847833;29;20099;-63
2022/01/10 02:05:36;;;;;;;28.83;6.15;;;2.60;99.90;;;;;;4846897;29;20158;-64
2022/01/10 02:08:02;;;;;;;18.63;6.17;;;2.50;99.90;;;;;;4837700;29;20062;-63
2022/01/10 02:10:28;;;;;;;30.42;6.93;;;2.50;99.90;;;;;;4833906;29;20478;-63
2022/01/10 02:12:54;;;;;;;25.80;6.83;;;2.50;99.90;;;;;;4833147;29;20058;-63
2022/01/10 02:15:26;;;;;;;23.03;6.47;;;2.50;99.90;;;;;;4845180;29;20061;-63
2022/01/10 02:17:58;;;;;;;34.38;7.10;;;2.50;99.90;;;;;;4850946;29;20050;-63
2022/01/10 02:20:24;;;;;;;25.33;6.97;;;2.50;99.90;;;;;;4833766;29;20058;-62
2022/01/10 02:22:50;;;;;;;27.80;7.28;;;2.50;99.90;;;;;;4836454;29;20090;-62
2022/01/10 02:25:15;;;;;;;25.05;6.90;;;2.50;99.90;;;;;;4850345;29;20050;-63
2022/01/10 02:27:41;;;;;;;28.17;7.23;;;2.40;99.90;;;;;;4834531;29;20065;-63
2022/01/10 02:30:07;;;;;;;23.30;6.50;;;2.40;99.90;;;;;;4850286;29;20057;-63
2022/01/10 02:32:34;;;;;;;18.48;6.45;;;2.40;99.90;;;;;;4851208;29;20315;-63
2022/01/10 02:35:00;;;;;;;30.70;6.40;;;2.40;99.90;;;;;;4837818;29;20042;-63
2022/01/10 02:37:36;;;;;;;19.20;6.57;;;2.40;99.90;;;;;;4851364;29;20073;-63
2022/01/10 02:40:06;;;;;;;27.17;6.47;;;2.40;99.90;;;;;;4848297;29;20323;-63
2022/01/10 02:42:32;;;;;;;28.33;6.57;;;2.30;99.90;;;;;;4850779;29;20058;-62
2022/01/10 02:44:58;;;;;;;25.13;6.57;;;2.30;99.90;;;;;;4850486;29;20046;-63
2022/01/10 02:47:27;;;;;;;22.73;6.83;;;2.30;99.90;;;;;;4849405;29;20814;-63
2022/01/10 02:49:53;;;;;;;28.45;7.03;;;2.30;99.90;;;;;;4850240;29;20118;-63
2022/01/10 02:52:19;;;;;;;25.52;6.80;;;2.30;99.90;;;;;;4850779;29;20085;-63
2022/01/10 02:54:44;;;;;;;22.30;6.20;;;2.20;99.90;;;;;;4854260;29;20041;-63
2022/01/10 02:57:10;;;;;;;24.05;6.25;;;2.20;99.90;;;;;;4852006;29;20058;-63
2022/01/10 02:59:37;;;;;;;32.97;7.57;;;2.20;99.90;;;;;;4843536;29;20058;-63
2022/01/10 03:02:03;;;;;;;;;;;2.20;99.90;;;;;;4851734;29;20069;-63
2022/01/10 03:04:28;;;;;;;24.38;6.47;;;2.10;99.90;;;;;;4852878;29;19924;-63
2022/01/10 03:06:54;;;;;;;26.43;7.03;;;2.10;99.90;;;;;;4833168;29;20070;-62
2022/01/10 03:09:20;;;;;;;24.67;6.83;;;2.10;99.90;;;;;;4842413;29;20055;-62
2022/01/10 03:11:46;;;;;;;23.83;6.72;;;2.10;99.90;;;;;;4836452;29;20103;-62
2022/01/10 03:14:12;;;;;;;39.13;7.75;;;2.10;99.90;;;;;;4848200;29;20141;-63
2022/01/10 03:16:38;;;;;;;23.77;6.63;;;2.10;99.90;;;;;;4854871;29;20485;-63
2022/01/10 03:19:03;;;;;;;19.80;6.97;;;2.10;99.90;;;;;;4839378;29;20387;-63
2022/01/10 03:21:29;;;;;;;24.10;7.30;;;2.00;99.90;;;;;;4836277;29;20091;-63
2022/01/10 03:23:55;;;;;;;23.40;6.83;;;2.00;99.90;;;;;;4858141;29;20041;-63
2022/01/10 03:26:21;;;;;;;26.00;7.43;;;2.00;99.90;;;;;;4854525;29;20195;-63
2022/01/10 03:28:47;;;;;;;27.00;7.43;;;2.00;99.90;;;;;;4850925;29;20307;-63
2022/01/10 03:31:13;;;;;;;31.77;8.45;;;2.00;99.90;;;;;;4854580;29;20375;-63
2022/01/10 03:33:39;;;;;;;25.90;7.57;;;1.90;99.90;;;;;;4849072;29;20174;-62
2022/01/10 03:36:05;;;;;;;30.30;8.48;;;1.90;99.90;;;;;;4835001;29;20506;-63
2022/01/10 03:38:30;;;;;;;21.00;7.20;;;1.90;99.90;;;;;;4848707;29;20038;-63
2022/01/10 03:40:56;;;;;;;36.80;7.88;;;2.00;99.90;;;;;;4836456;29;20046;-63
2022/01/10 03:43:22;;;;;;;31.90;7.63;;;1.90;99.90;;;;;;4848023;29;20058;-63
2022/01/10 03:45:48;;;;;;;24.17;7.47;;;1.90;99.90;;;;;;4849471;29;20327;-63
2022/01/10 03:48:13;;;;;;;35.28;7.90;;;1.90;99.90;;;;;;4835892;29;20203;-63
2022/01/10 03:50:39;;;;;;;23.33;7.37;;;1.90;99.90;;;;;;4849222;29;20057;-62
2022/01/10 03:53:05;;;;;;;26.87;8.33;;;1.90;99.90;;;;;;4851629;29;20050;-63
2022/01/10 03:55:30;;;;;;;26.50;8.60;;;1.90;99.90;;;;;;4835759;29;20042;-63
2022/01/10 03:57:56;;;;;;;39.88;9.10;;;1.90;99.90;;;;;;4849738;29;20066;-63
2022/01/10 04:00:22;;;;;;;25.30;7.93;;;1.90;99.90;;;;;;4842791;29;20042;-63
2022/01/10 04:02:55;;;;;;;31.60;9.00;;;1.90;99.90;;;;;;4854214;29;20042;-63
2022/01/10 04:05:21;;;;;;;30.35;9.88;;;1.90;99.90;;;;;;4853348;29;20069;-63
2022/01/10 04:07:47;;;;;;;30.45;9.65;;;1.90;99.90;;;;;;4853586;29;20066;-63
2022/01/10 04:10:13;;;;;;;33.65;9.05;;;1.90;99.90;;;;;;4849359;29;20090;-63
2022/01/10 04:12:38;;;;;;;28.02;9.15;;;1.90;99.90;;;;;;4842035;29;20046;-63
2022/01/10 04:15:05;;;;;;;30.33;9.73;;;1.90;99.90;;;;;;4853779;29;20090;-63
2022/01/10 04:17:30;;;;;;;28.40;8.85;;;1.90;99.90;;;;;;4851702;29;20057;-63
2022/01/10 04:19:56;;;;;;;31.90;10.07;;;1.90;99.90;;;;;;4852288;29;20038;-63
2022/01/10 04:22:22;;;;;;;31.53;9.80;;;1.90;99.90;;;;;;4852870;29;20383;-63
2022/01/10 04:24:47;;;;;;;27.98;8.98;;;1.90;99.90;;;;;;4851836;29;20053;-63
2022/01/10 04:27:13;;;;;;;31.90;10.40;;;1.90;99.90;;;;;;4853497;29;20062;-63
2022/01/10 04:29:39;;;;;;;38.00;10.73;;;1.90;99.90;;;;;;4849125;29;20086;-62
2022/01/10 04:32:05;;;;;;;29.03;10.37;;;1.90;99.90;;;;;;4853450;29;20046;-63
2022/01/10 04:34:31;;;;;;;27.73;10.55;;;1.90;99.90;;;;;;4853030;29;20104;-63
2022/01/10 04:36:56;;;;;;;27.30;9.52;;;1.90;99.90;;;;;;4852023;29;20121;-63
2022/01/10 04:39:22;;;;;;;31.83;10.57;;;1.90;99.90;;;;;;4851582;29;20073;-63
2022/01/10 04:41:48;;;;;;;38.70;13.18;;;1.80;99.90;;;;;;4842435;29;20112;-63
2022/01/10 04:44:14;;;;;;;34.03;10.63;;;1.90;99.90;;;;;;4844565;29;20100;-63
2022/01/10 04:46:39;;;;;;;37.17;12.40;;;1.90;99.90;;;;;;4834976;29;20390;-63
2022/01/10 04:49:09;;;;;;;34.07;11.57;;;1.90;99.90;;;;;;4839180;29;20054;-63
2022/01/10 04:51:35;;;;;;;32.30;10.95;;;1.90;99.90;;;;;;4841891;29;20069;-63
2022/01/10 04:54:00;;;;;;;35.97;11.53;;;1.90;99.90;;;;;;4838439;29;20049;-63
2022/01/10 04:56:26;;;;;;;40.63;11.90;;;1.80;99.90;;;;;;4852993;29;20053;-63
2022/01/10 04:58:52;;;;;;;37.87;12.57;;;1.80;99.90;;;;;;4849125;29;20054;-63
2022/01/10 05:01:18;;;;;;;32.50;11.35;;;1.80;99.90;;;;;;4842271;29;20045;-63
2022/01/10 05:03:45;;;;;;;38.45;12.25;;;1.80;99.90;;;;;;4851646;29;20054;-63
2022/01/10 05:06:10;;;;;;;37.72;11.77;;;1.80;99.90;;;;;;4851486;29;20573;-63
2022/01/10 05:08:36;;;;;;;36.90;12.30;;;1.80;99.90;;;;;;4839236;29;20054;-63
2022/01/10 05:11:02;;;;;;;35.57;12.63;;;1.80;99.90;;;;;;4837020;29;20078;-63
2022/01/10 05:13:28;;;;;;;39.83;12.73;;;1.80;99.90;;;;;;4833103;29;20066;-63
2022/01/10 05:15:54;;;;;;;39.70;13.30;;;1.80;99.90;;;;;;4839819;29;20398;-63
2022/01/10 05:18:23;;;;;;;33.95;12.95;;;1.80;99.90;;;;;;4851899;29;20065;-63
2022/01/10 05:20:49;;;;;;;37.97;13.98;;;1.80;99.90;;;;;;4850501;29;20098;-63
2022/01/10 05:23:15;;;;;;;43.65;13.50;;;1.80;99.90;;;;;;4835211;29;20046;-62
2022/01/10 05:25:41;;;;;;;44.60;13.57;;;1.70;99.90;;;;;;4833386;29;20045;-63
2022/01/10 05:28:09;;;;;;;38.38;13.63;;;1.70;99.90;;;;;;4841401;29;20132;-63
2022/01/10 05:30:35;;;;;;;38.22;12.48;;;1.70;99.90;;;;;;4833883;29;20046;-63
2022/01/10 05:33:01;;;;;;;38.05;14.32;;;1.70;99.90;;;;;;4835395;29;20042;-63
2022/01/10 05:35:26;;;;;;;42.20;13.47;;;1.70;99.90;;;;;;4833898;29;20053;-63
2022/01/10 05:37:52;;;;;;;45.47;13.23;;;1.70;99.90;;;;;;4837318;29;20315;-63
2022/01/10 05:40:19;;;;;;;34.33;13.10;;;1.60;99.90;;;;;;4851058;29;20077;-63
2022/01/10 05:42:45;;;;;;;47.03;13.50;;;1.60;99.90;;;;;;4847521;29;20069;-63
2022/01/10 05:45:11;;;;;;;34.70;13.35;;;1.60;99.90;;;;;;4832985;29;20394;-63
2022/01/10 05:47:42;;;;;;;42.80;13.80;;;1.60;99.90;;;;;;4841879;29;20422;-63
2022/01/10 05:50:10;;;;;;;35.75;14.05;;;1.60;99.90;;;;;;4852437;29;20065;-63
2022/01/10 05:52:36;;;;;;;32.40;13.35;;;1.50;99.90;;;;;;4848953;29;20060;-63
2022/01/10 05:55:03;;;;;;;39.78;14.07;;;1.50;99.90;;;;;;4850708;29;20136;-63
2022/01/10 05:57:29;;;;;;;45.97;15.68;;;1.50;99.90;;;;;;4841314;29;20046;-63
2022/01/10 05:59:54;;;;;;;39.27;15.00;;;1.50;99.90;;;;;;4834153;29;20106;-63
2022/01/10 06:02:21;;;;;;;42.30;15.30;;;1.50;99.90;;;;;;4848992;29;20054;-63
2022/01/10 06:04:46;;;;;;;40.08;15.45;;;1.50;99.90;;;;;;4850871;29;20220;-63
2022/01/10 06:07:13;;;;;;;39.00;15.27;;;1.50;99.90;;;;;;4851290;29;20065;-63
2022/01/10 06:09:39;;;;;;;37.80;15.65;;;1.40;99.90;;;;;;4838542;29;20097;-63
2022/01/10 06:12:05;;;;;;;44.67;14.98;;;1.40;99.90;;;;;;4838566;29;20042;-63
2022/01/10 06:14:31;;;;;;;46.53;15.60;;;1.40;99.90;;;;;;4837425;29;20133;-63
2022/01/10 06:16:57;;;;;;;41.77;16.57;;;1.40;99.90;;;;;;4837046;29;20140;-63
2022/01/10 06:19:23;;;;;;;40.60;17.13;;;1.40;99.90;;;;;;4851866;29;20042;-63
2022/01/10 06:21:49;;;;;;;37.47;16.60;;;1.30;99.90;;;;;;4849855;29;20413;-63
2022/01/10 06:24:14;;;;;;;45.85;15.70;;;1.30;99.90;;;;;;4835551;29;20302;-63
2022/01/10 06:26:40;;;;;;;44.17;17.73;;;1.30;99.90;;;;;;4848645;29;20090;-63
2022/01/10 06:29:06;;;;;;;34.93;16.00;;;1.30;99.90;;;;;;4850181;29;20165;-63
2022/01/10 06:31:31;;;;;;;37.17;15.60;;;1.30;99.90;;;;;;4849124;29;20042;-64
2022/01/10 06:33:57;;;;;;;44.37;18.60;;;1.30;99.90;;;;;;4849521;29;20049;-65
2022/01/10 06:36:23;;;;;;;43.87;18.23;;;1.30;99.90;;;;;;4848769;29;20296;-64
2022/01/10 06:38:48;;;;;;;55.77;19.53;;;1.30;99.90;;;;;;4849184;29;20332;-66
2022/01/10 06:41:14;;;;;;;45.47;17.77;;;1.20;99.90;;;;;;4837341;29;20299;-65
2022/01/10 06:43:40;;;;;;;46.87;20.73;;;1.20;99.90;;;;;;4838881;29;20071;-66
2022/01/10 06:46:06;;;;;;;41.00;17.87;;;1.20;99.90;;;;;;4832154;29;20054;-66
2022/01/10 06:48:33;;;;;;;50.15;20.63;;;1.20;99.90;;;;;;4834663;29;20123;-65
2022/01/10 06:50:58;;;;;;;56.92;22.00;;;1.20;99.90;;;;;;4833378;29;20047;-65
2022/01/10 06:53:24;;;;;;;53.63;19.03;;;1.20;99.90;;;;;;4832595;29;20061;-64
2022/01/10 06:55:50;;;;;;;44.87;19.30;;;1.10;99.90;;;;;;4816777;29;20106;-67
2022/01/10 06:58:16;;;;;;;41.92;19.85;;;1.20;99.90;;;;;;4832911;29;20126;-66
2022/01/10 07:00:43;;;;;;;42.35;19.50;;;1.20;99.90;;;;;;4838951;29;20094;-65
2022/01/10 07:03:09;;;;;;;54.45;20.95;;;1.10;99.90;;;;;;4844165;29;20061;-66
2022/01/10 07:05:34;;;;;;;56.40;20.23;;;1.10;99.90;;;;;;4831832;29;20042;-65
2022/01/10 07:08:00;;;;;;;37.40;18.27;;;1.10;99.90;;;;;;4836292;29;20141;-66
2022/01/10 07:10:26;;;;;;;40.80;19.43;;;1.10;99.90;;;;;;4833138;29;20307;-66
2022/01/10 07:12:53;;;;;;;50.07;20.67;;;1.10;99.90;;;;;;4833688;29;20600;-65
2022/01/10 07:15:20;;;;;;;43.00;19.23;;;1.10;99.90;;;;;;4842032;29;20231;-64
2022/01/10 07:17:46;;;;;;;53.58;19.70;;;1.00;99.90;;;;;;4834019;29;20054;-65
2022/01/10 07:20:12;;;;;;;38.58;18.40;;;1.10;99.90;;;;;;4849799;29;20086;-64
2022/01/10 07:22:37;;;;;;;51.00;20.40;;;1.00;99.90;;;;;;4849220;29;20061;-65
2022/01/10 07:25:04;;;;;;;54.23;21.20;;;1.00;99.90;;;;;;4852289;29;20056;-65
2022/01/10 07:27:29;;;;;;;60.47;22.63;;;1.00;99.90;;;;;;4850857;29;20462;-64
2022/01/10 07:29:55;;;;;;;50.93;21.00;;;1.00;99.90;;;;;;4855079;29;20046;-65
2022/01/10 07:32:21;;;;;;;46.77;19.13;;;1.00;99.90;;;;;;4853302;29;20406;-65
2022/01/10 07:34:46;;;;;;;50.90;21.03;;;0.90;99.90;;;;;;4860134;29;20046;-64
2022/01/10 07:37:12;;;;;;;50.22;20.13;;;0.90;99.90;;;;;;4856409;29;20061;-65
2022/01/10 07:39:39;;;;;;;51.43;21.40;;;0.90;99.90;;;;;;4854609;29;20478;-65
2022/01/10 07:42:04;;;;;;;58.17;21.75;;;0.90;99.90;;;;;;4855824;29;20310;-64
2022/01/10 07:44:30;;;;;;;51.50;24.48;;;0.90;99.90;;;;;;4861333;29;20042;-67
2022/01/10 07:46:56;;;;;;;59.57;24.63;;;0.90;99.90;;;;;;4849306;29;20065;-70
2022/01/10 07:49:22;;;;;;;54.88;23.70;;;0.90;99.90;;;;;;4854889;29;20081;-69
2022/01/10 07:51:47;;;;;;;55.83;24.88;;;0.90;99.90;;;;;;4860333;29;20050;-70
2022/01/10 07:54:13;;;;;;;56.60;23.87;;;1.00;99.90;;;;;;4858516;29;20114;-67
2022/01/10 07:56:39;;;;;;;51.90;24.00;;;1.00;99.90;;;;;;4858957;29;20050;-66
2022/01/10 07:59:05;;;;;;;65.27;27.07;;;1.00;99.90;;;;;;4855323;29;20049;-67
2022/01/10 08:01:30;;;;;;;54.50;25.47;;;1.00;99.90;;;;;;4862564;29;20041;-66
2022/01/10 08:03:56;;;;;;;59.27;24.10;;;1.00;99.90;;;;;;4856885;29;20050;-67
2022/01/10 08:06:22;;;;;;;55.23;24.67;;;1.00;99.90;;;;;;4861186;29;20058;-67
2022/01/10 08:08:49;;;;;;;61.85;25.85;;;1.00;99.90;;;;;;4855182;29;20098;-67
2022/01/10 08:11:15;;;;;;;55.92;25.17;;;1.00;99.90;;;;;;4858897;29;20060;-67
2022/01/10 08:13:44;;;;;;;65.43;26.35;;;1.00;99.90;;;;;;4853105;29;20418;-66
2022/01/10 08:16:10;;;;;;;67.85;26.77;;;1.00;99.90;;;;;;4860883;29;20094;-67
2022/01/10 08:18:36;;;;;;;68.00;26.98;;;1.00;99.90;;;;;;4863254;29;20050;-66
2022/01/10 08:21:03;;;;;;;65.13;27.27;;;1.00;99.90;;;;;;4862839;29;20132;-68
2022/01/10 08:23:29;;;;;;;69.07;25.80;;;1.00;99.90;;;;;;4860362;29;20061;-71
2022/01/10 08:25:55;;;;;;;71.32;28.80;;;1.10;99.90;;;;;;4858076;29;20064;-68
2022/01/10 08:28:22;;;;;;;69.50;28.85;;;1.10;99.90;;;;;;4851076;29;20088;-68
2022/01/10 08:30:48;;;;;;;67.75;28.08;;;1.10;99.90;;;;;;4855152;29;20132;-67
2022/01/10 08:33:14;;;;;;;65.10;29.20;;;1.10;99.90;;;;;;4859409;29;20072;-67
2022/01/10 08:35:40;;;;;;;71.67;27.73;;;1.10;99.90;;;;;;4858039;29;20750;-68
2022/01/10 08:38:05;;;;;;;60.92;28.60;;;1.10;99.90;;;;;;4853497;29;20174;-67
2022/01/10 08:40:31;;;;;;;64.73;27.97;;;1.10;99.90;;;;;;4862379;29;20190;-67
2022/01/10 08:42:59;;;;;;;82.38;32.42;;;1.10;99.90;;;;;;4856039;29;20050;-68
2022/01/10 08:45:25;;;;;;;62.65;28.08;;;1.10;99.90;;;;;;4854734;29;20086;-68
2022/01/10 08:47:51;;;;;;;82.07;30.98;;;1.20;99.90;;;;;;4854084;29;20134;-67
2022/01/10 08:50:17;;;;;;;77.83;32.23;;;1.20;99.90;;;;;;4860864;29;20068;-67
2022/01/10 08:52:43;;;;;;;72.82;31.50;;;1.20;99.90;;;;;;4861617;29;20060;-68
2022/01/10 08:55:09;;;;;;;70.30;30.77;;;1.20;99.90;;;;;;4852340;29;20066;-67
2022/01/10 08:57:36;;;;;;;78.03;30.52;;;1.30;99.90;;;;;;4850015;29;20078;-68
2022/01/10 09:00:04;;;;;;;71.95;29.25;;;1.30;99.90;;;;;;4852069;29;20076;-68
2022/01/10 09:02:30;;;;;;;69.03;29.55;;;1.30;99.90;;;;;;4853269;29;20101;-68
2022/01/10 09:04:56;;;;;;;72.17;31.30;;;1.30;99.90;;;;;;4852383;29;20478;-70
2022/01/10 09:07:21;;;;;;;66.30;29.97;;;1.30;99.90;;;;;;4855748;29;20499;-66
2022/01/10 09:09:47;;;;;;;74.40;30.60;;;1.30;99.90;;;;;;4852193;29;20128;-66
2022/01/10 09:12:13;;;;;;;69.80;30.53;;;1.40;99.90;;;;;;4860223;29;20302;-65
2022/01/10 09:14:39;;;;;;;84.17;31.60;;;1.40;99.90;;;;;;4851822;29;20307;-68
2022/01/10 09:17:05;;;;;;;75.40;32.63;;;1.40;99.90;;;;;;4858922;29;20922;-66
2022/01/10 09:19:30;;;;;;;79.13;33.33;;;1.50;99.90;;;;;;4859192;29;20065;-68
2022/01/10 09:21:56;;;;;;;72.83;32.37;;;1.50;99.90;;;;;;4860901;29;20049;-67
2022/01/10 09:24:22;;;;;;;84.97;32.35;;;1.50;99.90;;;;;;4858670;29;20377;-67
2022/01/10 09:26:48;;;;;;;77.13;33.95;;;1.50;99.90;;;;;;4854784;29;20042;-69
2022/01/10 09:29:14;;;;;;;76.40;32.83;;;1.60;99.90;;;;;;4857765;29;20140;-65
2022/01/10 09:31:40;;;;;;;80.07;33.42;;;1.60;99.90;;;;;;4857730;29;20042;-67
2022/01/10 09:34:05;;;;;;;68.60;32.13;;;1.60;99.90;;;;;;4853347;29;20061;-67
2022/01/10 09:36:32;;;;;;;72.23;33.97;;;1.60;99.90;;;;;;4837355;29;20053;-68
2022/01/10 09:38:58;;;;;;;79.03;33.22;;;1.60;99.90;;;;;;4856432;29;20053;-67
2022/01/10 09:41:25;;;;;;;75.07;34.00;;;1.70;99.90;;;;;;4855078;29;20065;-68
2022/01/10 09:44:00;;;;;;;88.10;35.50;;;1.70;99.90;;;;;;4861832;29;20069;-68
2022/01/10 09:46:26;;;;;;;86.35;36.55;;;1.70;99.90;;;;;;4866375;29;20053;-68
2022/01/10 09:48:52;;;;;;;86.90;35.08;;;1.80;99.90;;;;;;4859232;29;20207;-68
2022/01/10 09:51:19;;;;;;;65.40;33.20;;;1.80;99.90;;;;;;4852948;29;20053;-68
2022/01/10 09:53:45;;;;;;;80.93;36.22;;;1.90;99.90;;;;;;4856995;29;20058;-68
2022/01/10 09:56:11;;;;;;;88.35;36.03;;;1.90;99.90;;;;;;4859353;29;20058;-68
2022/01/10 09:58:37;;;;;;;83.23;35.53;;;2.00;99.90;;;;;;4859722;29;20113;-68
2022/01/10 10:01:03;;;;;;;73.17;34.33;;;2.00;99.90;;;;;;4856944;29;20394;-66
2022/01/10 10:03:29;;;;;;;88.80;36.42;;;2.00;99.90;;;;;;4852369;29;20084;-67
2022/01/10 10:05:57;;;;;;;84.38;34.60;;;2.10;99.90;;;;;;4843835;29;20058;-67
2022/01/10 10:08:24;;;;;;;84.15;36.50;;;2.10;99.90;;;;;;4851666;29;20062;-67
2022/01/10 10:10:51;;;;;;;87.70;35.78;;;2.10;99.90;;;;;;4853288;29;20054;-67
2022/01/10 10:13:17;;;;;;;81.88;36.33;;;2.10;99.90;;;;;;4865209;29;20055;-65
2022/01/10 10:15:45;;;;;;;80.85;36.95;;;2.20;99.90;;;;;;4855251;29;20105;-67
2022/01/10 10:18:15;;;;;;;91.25;37.05;;;2.30;99.90;;;;;;4854887;29;20121;-65
2022/01/10 10:20:43;;;;;;;88.97;36.17;;;2.30;99.90;;;;;;4848260;29;20046;-65
2022/01/10 10:23:14;;;;;;;88.55;36.97;;;2.30;99.90;;;;;;4855813;29;20441;-65
2022/01/10 10:25:47;;;;;;;80.93;36.92;;;2.40;99.90;;;;;;4860709;29;20176;-65
2022/01/10 10:28:13;;;;;;;82.13;36.15;;;2.40;99.90;;;;;;4859178;29;20053;-64
2022/01/10 10:30:39;;;;;;;82.60;35.13;;;2.40;99.90;;;;;;4851900;29;20057;-65
2022/01/10 10:33:19;;;;;;;91.70;38.38;;;2.40;99.90;;;;;;4851396;29;20050;-65
2022/01/10 10:35:54;;;;;;;82.20;35.75;;;2.40;99.90;;;;;;4860306;29;20053;-65
2022/01/10 10:38:20;;;;;;;73.60;34.92;;;2.50;99.90;;;;;;4848103;29;20082;-64
2022/01/10 10:40:45;;;;;;;74.60;34.13;;;2.50;99.90;;;;;;4860904;29;20061;-65
2022/01/10 10:43:12;;;;;;;72.10;33.10;;;2.60;99.90;;;;;;4859560;29;20046;-65
2022/01/10 10:45:38;;;;;;;77.32;35.10;;;2.60;99.90;;;;;;4855545;29;20163;-68
2022/01/10 10:48:06;;;;;;;69.57;33.40;;;2.60;99.90;;;;;;4859107;29;20090;-67
2022/01/10 10:50:42;;;;;;;90.30;32.75;;;2.70;99.90;;;;;;4861894;29;20057;-65
2022/01/10 10:53:10;;;;;;;82.45;34.47;;;2.70;99.90;;;;;;4855111;29;20053;-65
2022/01/10 10:55:40;;;;;;;77.72;33.90;;;2.70;99.90;;;;;;4857507;29;20105;-66
2022/01/10 10:58:07;;;;;;;81.65;34.55;;;2.70;99.90;;;;;;4853201;29;20142;-63
2022/01/10 11:00:35;;;;;;;65.38;32.75;;;2.70;99.90;;;;;;4859332;29;20388;-64
2022/01/10 11:03:01;;;;;;;70.53;36.42;;;2.70;99.90;;;;;;4856662;29;20041;-64
2022/01/10 11:05:27;;;;;;;79.63;35.05;;;2.80;99.90;;;;;;4854299;29;20084;-63
2022/01/10 11:07:53;;;;;;;89.00;38.63;;;2.80;99.90;;;;;;4857804;29;20110;-64
2022/01/10 11:10:19;;;;;;;101.85;39.67;;;2.90;99.90;;;;;;4861010;29;20076;-63
2022/01/10 11:12:52;;;;;;;83.93;38.10;;;2.90;99.90;;;;;;4855121;29;20050;-65
2022/01/10 11:15:17;;;;;;;80.13;38.58;;;2.90;99.90;;;;;;4857896;29;20811;-65
2022/01/10 11:17:43;;;;;;;77.23;36.27;;;3.00;99.90;;;;;;4863794;29;20530;-67
2022/01/10 11:20:16;;;;;;;81.27;38.27;;;3.00;99.90;;;;;;4862943;29;20080;-67
2022/01/10 11:22:51;;;;;;;85.28;38.60;;;3.10;99.90;;;;;;4850720;29;20538;-67
2022/01/10 11:25:31;;;;;;;70.78;35.55;;;3.10;99.90;;;;;;4863658;29;20045;-65
2022/01/10 11:28:00;;;;;;;70.13;36.05;;;3.10;99.90;;;;;;4861569;29;20081;-69
2022/01/10 11:30:42;;;;;;;59.15;31.75;;;3.20;99.90;;;;;;4863800;29;20050;-66
2022/01/10 11:33:14;;;;;;;72.65;36.35;;;3.20;99.90;;;;;;4860685;29;20057;-67
2022/01/10 11:35:47;;;;;;;67.82;33.92;;;3.30;99.90;;;;;;4860609;29;20073;-65
2022/01/10 11:38:34;;;;;;;64.40;32.10;;;3.30;99.90;;;;;;4854382;29;20419;-66
2022/01/10 11:41:12;;;;;;;66.88;30.98;;;3.30;99.90;;;;;;4861078;29;20097;-65
2022/01/10 11:43:53;;;;;;;56.63;29.45;;;3.30;99.90;;;;;;4855791;29;20045;-65
2022/01/10 11:46:23;;;;;;;73.45;31.08;;;3.40;99.90;;;;;;4855901;29;20595;-65
2022/01/10 11:49:02;;;;;;;70.10;31.27;;;3.40;99.90;;;;;;4851289;29;20050;-63
2022/01/10 11:51:31;;;;;;;58.70;29.35;;;3.40;99.90;;;;;;4858521;29;20119;-63
2022/01/10 11:54:14;;;;;;;59.53;30.58;;;3.40;99.90;;;;;;4861375;29;20057;-63
2022/01/10 11:56:42;;;;;;;63.58;31.73;;;3.40;99.90;;;;;;4854443;29;20038;-65
2022/01/10 11:59:16;;;;;;;63.58;31.50;;;3.40;99.90;;;;;;4861275;29;20061;-66
2022/01/10 12:01:57;;;;;;;61.15;30.77;;;3.50;99.90;;;;;;4852174;29;20073;-65
2022/01/10 12:04:24;;;;;;;60.63;26.70;;;3.50;99.90;;;;;;4857198;29;20064;-65
2022/01/10 12:06:51;;;;;;;53.95;27.02;;;3.50;99.90;;;;;;4863373;29;20050;-65
2022/01/10 12:09:17;;;;;;;65.22;26.38;;;3.50;99.90;;;;;;4849257;29;20186;-65
2022/01/10 12:11:45;;;;;;;60.08;27.75;;;3.60;99.90;;;;;;4855385;29;20133;-64
2022/01/10 12:14:12;;;;;;;55.22;26.90;;;3.60;99.90;;;;;;4860121;29;20188;-65
2022/01/10 12:16:38;;;;;;;;;;;3.70;99.90;;;;;;4853978;29;20057;-65
2022/01/10 12:19:05;;;;;;;66.78;26.30;;;3.60;99.90;;;;;;4856521;29;19925;-65
2022/01/10 12:21:31;;;;;;;56.35;24.50;;;3.70;99.90;;;;;;4856378;29;20170;-67
2022/01/10 12:23:57;;;;;;;62.20;26.80;;;3.70;99.90;;;;;;4856453;29;20049;-66
2022/01/10 12:26:24;;;;;;;52.33;24.90;;;3.80;99.90;;;;;;4853751;29;20057;-67
2022/01/10 12:28:54;;;;;;;63.35;25.02;;;3.80;99.90;;;;;;4852797;29;20080;-67
2022/01/10 12:31:21;;;;;;;44.47;24.58;;;3.80;99.90;;;;;;4859702;29;20151;-66
2022/01/10 12:33:49;;;;;;;51.58;26.75;;;3.90;99.90;;;;;;4862942;29;20045;-68
2022/01/10 12:36:15;;;;;;;54.85;26.50;;;3.90;99.90;;;;;;4859717;29;20176;-67
2022/01/10 12:38:42;;;;;;;57.08;25.15;;;3.90;99.90;;;;;;4863290;29;20096;-67
2022/01/10 12:41:08;;;;;;;51.65;26.08;;;4.00;99.90;;;;;;4855886;29;20094;-66
2022/01/10 12:43:34;;;;;;;50.22;25.15;;;4.00;99.90;;;;;;4858076;29;20061;-66
2022/01/10 12:46:00;;;;;;;49.60;25.87;;;4.00;99.90;;;;;;4858317;29;20056;-66
2022/01/10 12:48:25;;;;;;;45.83;23.73;;;4.00;99.90;;;;;;4861518;29;20120;-67
2022/01/10 12:50:54;;;;;;;55.75;26.55;;;4.00;99.90;;;;;;4860082;29;20051;-66
2022/01/10 12:53:20;;;;;;;55.47;24.92;;;4.10;99.90;;;;;;4838150;29;20058;-66